Grand Forks Air Force Base
KRDR : now visible

Airfield :











YOU CAN JOIN US ON...

 
LOGIN :

Register | Disclaimer

   EN    FR    IT 

 









Legend :    VFR   Marginal VFR   IFR   Intensive IFR   Very Intensive IFR
Visi :
Ceiling :
>= 8 km
>= 3000ft
5 to 8 km
1000 to 3000 ft
1500m to 5 km
500 to 1000 ft
800 to 1500m
200 to 500 ft
< 800m
< 200 ft
Symbols :   Thunderstorms  Fog  Heavy snow  Heavy precipitations  Wind > 20 kt






- Airport Elevation : 913 ft


KRDR - Grand Forks Air Force Base

CURRENT METAR :
  • 100656Z AUTO 22003KT 10SM CLR M03/M04 A3007 RMK AO2 SLP200 T10301036

EXPIRED METARs :
  • 100556Z COR AUTO 26005KT 10SM CLR M02/M04 A3009 RMK AO2A SLP207 4/001 T10231040 10034 21024 400411028 57008 COR 0603
  • 100456Z AUTO 27007KT 10SM CLR M02/M04 A3010 RMK AO2 SLP211 T10201039

TAF TAF KRDR
Valid from the 10 at 02:00 until the 11 at 08:00 UTC


100200Z 1002/1108 VRB06KT 9999 FEW050 QNH2992INS
BECMG 1014/1015 22012G18KT 9999 BKN075 620759 QNH2973INS
BECMG 1022/1023 VRB06KT 9999 SCT060 QNH2973INS TX09/1021Z TNM02/1006Z



MET'MAP, your aeronautical weather chart ! - Copyright ORBIFLY December 2007 - Disclaimer

ORBIFLY MET'MAP TEAM :

Programming & Development : Alexandra Zaïnal
Concept & original design : Baudouin d'Aumeries
Assistance for programming : Marc-Olivier Méhu
Technical & hardware support : Manuel Goepfert

Contact : metmap@orbifly.com




SOURCES & CREDITS :

   NOAA       Earth
Advisory